createdAt,value
2018-09-26T21:32:50.241Z,79.25
2018-09-26T21:33:50.099Z,79.90
2018-09-26T21:35:43.019Z,78.87
2018-09-26T21:36:43.033Z,79.64
2018-09-26T21:38:36.230Z,77.40
2018-09-26T21:39:35.966Z,77.89
2018-09-26T21:41:28.897Z,78.19
2018-09-26T21:42:28.914Z,76.82
2018-09-26T21:44:21.956Z,75.26
2018-09-26T21:45:21.827Z,74.39
2018-09-26T21:47:14.810Z,76.43
2018-09-26T21:49:27.911Z,77.21
2018-09-26T21:50:27.826Z,77.50
2018-09-26T21:52:20.743Z,77.60
2018-09-26T21:53:20.855Z,77.11
2018-09-26T21:55:14.003Z,75.26
2018-09-26T21:56:13.756Z,75.46
2018-09-26T21:58:06.676Z,75.46
2018-09-26T21:59:06.691Z,74.58
2018-09-26T22:00:59.730Z,75.85
2018-09-26T22:01:59.629Z,75.26
2018-09-26T22:03:52.619Z,78.38
2018-09-26T22:04:52.554Z,76.14
2018-09-26T22:06:45.623Z,77.40
2018-09-26T22:07:45.490Z,74.49
2018-09-26T22:09:38.990Z,73.80
2018-09-26T22:10:38.437Z,74.58
2018-09-26T22:12:31.475Z,74.58
2018-09-26T22:13:31.363Z,76.73
2018-09-26T22:15:24.334Z,75.16
2018-09-26T22:16:24.310Z,75.75
2018-09-26T22:18:17.497Z,76.14
2018-09-26T22:19:17.242Z,76.53
2018-09-26T22:21:10.082Z,75.46
2018-09-26T22:22:10.099Z,75.36
2018-09-26T22:24:03.312Z,76.14
2018-09-26T22:25:03.077Z,77.11
2018-09-26T22:26:55.958Z,77.60
2018-09-26T22:27:55.977Z,79.35
2018-09-26T22:29:49.225Z,76.63
2018-09-26T22:30:48.916Z,80.52
2018-09-26T22:32:41.828Z,82.08
2018-09-26T22:33:41.844Z,80.43
2018-09-26T22:35:35.070Z,77.31
2018-09-26T22:36:34.797Z,76.14
2018-09-26T22:38:27.706Z,76.34
2018-09-26T22:39:27.720Z,75.85
2018-09-26T22:41:20.895Z,74.58
2018-09-26T22:42:20.655Z,74.39
2018-09-26T22:44:13.572Z,74.49
2018-09-26T22:45:13.594Z,74.39
2018-09-26T22:47:06.768Z,76.34
2018-09-26T22:48:06.523Z,77.89
2018-09-26T22:49:59.468Z,79.55
2018-09-26T22:50:59.466Z,78.28
2018-09-26T22:52:52.432Z,77.60
2018-09-26T22:53:52.393Z,78.48
2018-09-26T22:55:45.312Z,74.39
2018-09-26T22:56:45.337Z,74.87
2018-09-26T22:58:38.515Z,76.92
2018-09-26T22:59:38.278Z,74.68
2018-09-26T23:01:31.180Z,73.57
2018-09-26T23:02:31.195Z,70.36
2018-09-26T23:04:24.463Z,69.78
2018-09-26T23:05:24.176Z,68.12
2018-09-26T23:07:17.167Z,72.11
2018-09-26T23:08:17.110Z,71.72
2018-09-26T23:10:10.327Z,68.41
2018-09-26T23:11:10.041Z,67.83
2018-09-26T23:13:02.968Z,70.17
2018-09-26T23:14:02.985Z,70.17
2018-09-26T23:15:56.238Z,70.65
2018-09-26T23:16:55.950Z,70.56
2018-09-26T23:18:48.895Z,70.26
2018-09-26T23:19:48.924Z,72.89
2018-09-26T23:21:42.088Z,73.38
2018-09-26T23:22:41.868Z,72.31
2018-09-26T23:24:34.788Z,73.02
2018-09-26T23:25:34.780Z,74.00
2018-09-26T23:27:27.969Z,76.63
2018-09-26T23:28:27.731Z,77.60
2018-09-26T23:30:20.649Z,76.63
2018-09-26T23:31:20.658Z,76.20
2018-09-26T23:33:13.829Z,74.97
2018-09-26T23:34:13.609Z,75.75
2018-09-26T23:36:06.483Z,75.16
2018-09-26T23:37:06.501Z,73.41
2018-09-26T23:39:00.751Z,75.36
2018-09-26T23:39:59.433Z,75.65
2018-09-26T23:41:52.545Z,74.58
2018-09-26T23:42:52.585Z,73.41
2018-09-26T23:44:45.751Z,72.34
2018-09-26T23:45:45.509Z,73.12
2018-09-26T23:47:38.449Z,72.92
2018-09-26T23:48:38.446Z,70.46
2018-09-26T23:50:31.680Z,71.66
2018-09-26T23:51:31.396Z,72.50
2018-09-26T23:53:24.316Z,73.80
2018-09-26T23:54:24.318Z,72.83
2018-09-26T23:56:17.508Z,73.71
2018-09-26T23:57:17.261Z,75.65
2018-09-26T23:59:10.156Z,75.85
